sensor_id;sensor_type;location;lat;lon;timestamp;temperature;humidity
10057;DHT22;5068;51.286;7.518;2023-05-07T00:00:02;13.50;65.40
10057;DHT22;5068;51.286;7.518;2023-05-07T00:01:39;13.50;65.40
10057;DHT22;5068;51.286;7.518;2023-05-07T00:03:12;13.50;65.40
10057;DHT22;5068;51.286;7.518;2023-05-07T00:04:45;13.50;65.40
10057;DHT22;5068;51.286;7.518;2023-05-07T00:06:19;13.50;65.40
10057;DHT22;5068;51.286;7.518;2023-05-07T00:07:51;13.50;65.40
10057;DHT22;5068;51.286;7.518;2023-05-07T00:09:24;13.50;65.50
10057;DHT22;5068;51.286;7.518;2023-05-07T00:10:58;13.50;65.60
10057;DHT22;5068;51.286;7.518;2023-05-07T00:12:31;13.50;65.70
10057;DHT22;5068;51.286;7.518;2023-05-07T00:14:05;13.50;65.70
10057;DHT22;5068;51.286;7.518;2023-05-07T00:15:38;13.40;65.70
10057;DHT22;5068;51.286;7.518;2023-05-07T00:17:12;13.50;65.90
10057;DHT22;5068;51.286;7.518;2023-05-07T00:18:44;13.40;65.80
10057;DHT22;5068;51.286;7.518;2023-05-07T00:20:17;13.40;65.90
10057;DHT22;5068;51.286;7.518;2023-05-07T00:21:50;13.40;66.10
10057;DHT22;5068;51.286;7.518;2023-05-07T00:23:25;13.40;66.30
10057;DHT22;5068;51.286;7.518;2023-05-07T00:24:58;13.40;66.30
10057;DHT22;5068;51.286;7.518;2023-05-07T00:26:33;13.30;66.30
10057;DHT22;5068;51.286;7.518;2023-05-07T00:28:06;13.40;66.30
10057;DHT22;5068;51.286;7.518;2023-05-07T00:29:39;13.40;66.30
10057;DHT22;5068;51.286;7.518;2023-05-07T00:31:12;13.40;66.30
10057;DHT22;5068;51.286;7.518;2023-05-07T00:32:45;13.30;66.30
10057;DHT22;5068;51.286;7.518;2023-05-07T00:34:20;13.40;66.30
10057;DHT22;5068;51.286;7.518;2023-05-07T00:35:54;13.30;66.20
10057;DHT22;5068;51.286;7.518;2023-05-07T00:37:27;13.30;66.30
10057;DHT22;5068;51.286;7.518;2023-05-07T00:39:00;13.30;66.30
10057;DHT22;5068;51.286;7.518;2023-05-07T00:40:35;13.30;66.30
10057;DHT22;5068;51.286;7.518;2023-05-07T00:42:08;13.30;66.30
10057;DHT22;5068;51.286;7.518;2023-05-07T00:43:41;13.30;66.30
10057;DHT22;5068;51.286;7.518;2023-05-07T00:45:14;13.30;66.30
10057;DHT22;5068;51.286;7.518;2023-05-07T00:46:47;13.30;66.30
10057;DHT22;5068;51.286;7.518;2023-05-07T00:48:21;13.30;66.30
10057;DHT22;5068;51.286;7.518;2023-05-07T00:49:56;13.30;66.20
10057;DHT22;5068;51.286;7.518;2023-05-07T00:51:30;13.30;66.30
10057;DHT22;5068;51.286;7.518;2023-05-07T00:53:03;13.30;66.30
10057;DHT22;5068;51.286;7.518;2023-05-07T00:54:37;13.30;66.30
10057;DHT22;5068;51.286;7.518;2023-05-07T00:56:10;13.30;66.30
10057;DHT22;5068;51.286;7.518;2023-05-07T00:57:46;13.30;66.30
10057;DHT22;5068;51.286;7.518;2023-05-07T00:59:18;13.30;66.30
10057;DHT22;5068;51.286;7.518;2023-05-07T01:00:52;13.30;66.20
10057;DHT22;5068;51.286;7.518;2023-05-07T01:02:25;13.30;66.20
10057;DHT22;5068;51.286;7.518;2023-05-07T01:03:58;13.30;66.30
10057;DHT22;5068;51.286;7.518;2023-05-07T01:05:32;13.30;66.20
10057;DHT22;5068;51.286;7.518;2023-05-07T01:07:06;13.20;66.10
10057;DHT22;5068;51.286;7.518;2023-05-07T01:08:41;13.30;66.30
10057;DHT22;5068;51.286;7.518;2023-05-07T01:10:15;13.30;66.30
10057;DHT22;5068;51.286;7.518;2023-05-07T01:11:49;13.20;66.20
10057;DHT22;5068;51.286;7.518;2023-05-07T01:13:25;13.20;66.20
10057;DHT22;5068;51.286;7.518;2023-05-07T01:14:58;13.20;66.20
10057;DHT22;5068;51.286;7.518;2023-05-07T01:16:32;13.30;66.30
10057;DHT22;5068;51.286;7.518;2023-05-07T01:18:05;13.20;66.20
10057;DHT22;5068;51.286;7.518;2023-05-07T01:19:40;13.20;66.20
10057;DHT22;5068;51.286;7.518;2023-05-07T01:21:15;13.20;66.20
10057;DHT22;5068;51.286;7.518;2023-05-07T01:22:52;13.20;66.10
10057;DHT22;5068;51.286;7.518;2023-05-07T01:24:25;13.20;66.30
10057;DHT22;5068;51.286;7.518;2023-05-07T01:25:58;13.20;66.30
10057;DHT22;5068;51.286;7.518;2023-05-07T01:27:33;13.20;66.50
10057;DHT22;5068;51.286;7.518;2023-05-07T01:29:07;13.20;66.50
10057;DHT22;5068;51.286;7.518;2023-05-07T01:30:42;13.20;66.70
10057;DHT22;5068;51.286;7.518;2023-05-07T01:32:25;13.20;66.90
10057;DHT22;5068;51.286;7.518;2023-05-07T01:34:02;13.20;66.90
10057;DHT22;5068;51.286;7.518;2023-05-07T01:35:39;13.20;66.80
10057;DHT22;5068;51.286;7.518;2023-05-07T01:37:15;13.20;66.80
10057;DHT22;5068;51.286;7.518;2023-05-07T01:38:50;13.20;66.80
10057;DHT22;5068;51.286;7.518;2023-05-07T01:40:24;13.20;66.90
10057;DHT22;5068;51.286;7.518;2023-05-07T01:41:58;13.20;67.00
10057;DHT22;5068;51.286;7.518;2023-05-07T01:43:32;13.20;67.00
10057;DHT22;5068;51.286;7.518;2023-05-07T01:45:07;13.20;67.00
10057;DHT22;5068;51.286;7.518;2023-05-07T01:46:39;13.20;67.10
10057;DHT22;5068;51.286;7.518;2023-05-07T01:48:14;13.20;67.00
10057;DHT22;5068;51.286;7.518;2023-05-07T01:49:47;13.20;66.90
10057;DHT22;5068;51.286;7.518;2023-05-07T01:51:20;13.20;66.80
10057;DHT22;5068;51.286;7.518;2023-05-07T01:52:54;13.20;66.70
10057;DHT22;5068;51.286;7.518;2023-05-07T01:54:29;13.20;66.70
10057;DHT22;5068;51.286;7.518;2023-05-07T01:56:03;13.20;66.80
10057;DHT22;5068;51.286;7.518;2023-05-07T01:57:38;13.20;66.80
10057;DHT22;5068;51.286;7.518;2023-05-07T01:59:10;13.20;66.80
10057;DHT22;5068;51.286;7.518;2023-05-07T02:00:45;13.10;66.70
10057;DHT22;5068;51.286;7.518;2023-05-07T02:02:18;13.10;66.70
10057;DHT22;5068;51.286;7.518;2023-05-07T02:03:51;13.20;66.70
10057;DHT22;5068;51.286;7.518;2023-05-07T02:05:29;13.10;66.70
10057;DHT22;5068;51.286;7.518;2023-05-07T02:07:07;13.10;66.60
10057;DHT22;5068;51.286;7.518;2023-05-07T02:08:41;13.10;66.60
10057;DHT22;5068;51.286;7.518;2023-05-07T02:10:16;13.10;66.60
10057;DHT22;5068;51.286;7.518;2023-05-07T02:11:49;13.10;66.70
10057;DHT22;5068;51.286;7.518;2023-05-07T02:13:25;13.10;66.70
10057;DHT22;5068;51.286;7.518;2023-05-07T02:14:59;13.10;66.60
10057;DHT22;5068;51.286;7.518;2023-05-07T02:16:31;13.10;66.50
10057;DHT22;5068;51.286;7.518;2023-05-07T02:18:07;13.10;66.60
10057;DHT22;5068;51.286;7.518;2023-05-07T02:19:42;13.10;66.60
10057;DHT22;5068;51.286;7.518;2023-05-07T02:21:14;13.10;66.70
10057;DHT22;5068;51.286;7.518;2023-05-07T02:22:47;13.10;66.70
10057;DHT22;5068;51.286;7.518;2023-05-07T02:24:20;13.10;66.80
10057;DHT22;5068;51.286;7.518;2023-05-07T02:25:54;13.10;66.90
10057;DHT22;5068;51.286;7.518;2023-05-07T02:27:27;13.10;66.90
10057;DHT22;5068;51.286;7.518;2023-05-07T02:28:59;13.00;66.70
10057;DHT22;5068;51.286;7.518;2023-05-07T02:30:33;13.00;66.70
10057;DHT22;5068;51.286;7.518;2023-05-07T02:32:05;13.00;66.70
10057;DHT22;5068;51.286;7.518;2023-05-07T02:33:38;13.00;66.70
10057;DHT22;5068;51.286;7.518;2023-05-07T02:35:13;13.00;66.70
10057;DHT22;5068;51.286;7.518;2023-05-07T02:36:45;13.00;66.80
10057;DHT22;5068;51.286;7.518;2023-05-07T02:38:22;13.00;66.70
10057;DHT22;5068;51.286;7.518;2023-05-07T02:39:56;13.00;66.80
10057;DHT22;5068;51.286;7.518;2023-05-07T02:41:29;13.00;66.70
10057;DHT22;5068;51.286;7.518;2023-05-07T02:43:03;13.00;66.70
10057;DHT22;5068;51.286;7.518;2023-05-07T02:44:35;13.00;66.60
10057;DHT22;5068;51.286;7.518;2023-05-07T02:46:08;13.00;66.50
10057;DHT22;5068;51.286;7.518;2023-05-07T02:47:46;13.00;66.50
10057;DHT22;5068;51.286;7.518;2023-05-07T02:49:19;13.00;66.40
10057;DHT22;5068;51.286;7.518;2023-05-07T02:50:52;13.00;66.40
10057;DHT22;5068;51.286;7.518;2023-05-07T02:52:25;12.90;66.30
10057;DHT22;5068;51.286;7.518;2023-05-07T02:53:59;12.90;66.20
10057;DHT22;5068;51.286;7.518;2023-05-07T02:55:33;12.90;66.20
10057;DHT22;5068;51.286;7.518;2023-05-07T02:57:07;12.90;66.10
10057;DHT22;5068;51.286;7.518;2023-05-07T02:58:40;12.90;66.00
10057;DHT22;5068;51.286;7.518;2023-05-07T03:00:15;12.90;65.90
10057;DHT22;5068;51.286;7.518;2023-05-07T03:02:16;12.90;65.90
10057;DHT22;5068;51.286;7.518;2023-05-07T03:03:49;12.90;65.90
10057;DHT22;5068;51.286;7.518;2023-05-07T03:05:23;12.90;65.90
10057;DHT22;5068;51.286;7.518;2023-05-07T03:06:56;12.90;65.90
10057;DHT22;5068;51.286;7.518;2023-05-07T03:08:29;12.80;65.70
10057;DHT22;5068;51.286;7.518;2023-05-07T03:10:03;12.80;65.70
10057;DHT22;5068;51.286;7.518;2023-05-07T03:11:35;12.80;65.70
10057;DHT22;5068;51.286;7.518;2023-05-07T03:13:10;12.80;65.70
10057;DHT22;5068;51.286;7.518;2023-05-07T03:14:44;12.80;65.70
10057;DHT22;5068;51.286;7.518;2023-05-07T03:16:16;12.80;65.70
10057;DHT22;5068;51.286;7.518;2023-05-07T03:17:49;12.80;65.70
10057;DHT22;5068;51.286;7.518;2023-05-07T03:19:24;12.80;65.70
10057;DHT22;5068;51.286;7.518;2023-05-07T03:20:57;12.70;65.60
10057;DHT22;5068;51.286;7.518;2023-05-07T03:22:30;12.70;65.60
10057;DHT22;5068;51.286;7.518;2023-05-07T03:24:04;12.70;65.60
10057;DHT22;5068;51.286;7.518;2023-05-07T03:25:38;12.70;65.60
10057;DHT22;5068;51.286;7.518;2023-05-07T03:27:11;12.60;65.50
10057;DHT22;5068;51.286;7.518;2023-05-07T03:28:45;12.60;65.60
10057;DHT22;5068;51.286;7.518;2023-05-07T03:30:21;12.60;65.80
10057;DHT22;5068;51.286;7.518;2023-05-07T03:31:55;12.60;65.80
10057;DHT22;5068;51.286;7.518;2023-05-07T03:33:28;12.60;65.80
10057;DHT22;5068;51.286;7.518;2023-05-07T03:35:01;12.60;65.90
10057;DHT22;5068;51.286;7.518;2023-05-07T03:36:34;12.60;66.00
10057;DHT22;5068;51.286;7.518;2023-05-07T03:38:09;12.60;66.10
10057;DHT22;5068;51.286;7.518;2023-05-07T03:39:43;12.60;66.10
10057;DHT22;5068;51.286;7.518;2023-05-07T03:41:16;12.60;66.20
10057;DHT22;5068;51.286;7.518;2023-05-07T03:42:50;12.50;66.10
10057;DHT22;5068;51.286;7.518;2023-05-07T03:44:27;12.50;66.20
10057;DHT22;5068;51.286;7.518;2023-05-07T03:46:01;12.50;66.20
10057;DHT22;5068;51.286;7.518;2023-05-07T03:47:34;12.50;66.20
10057;DHT22;5068;51.286;7.518;2023-05-07T03:49:07;12.50;66.20
10057;DHT22;5068;51.286;7.518;2023-05-07T03:50:40;12.50;66.20
10057;DHT22;5068;51.286;7.518;2023-05-07T03:52:13;12.50;66.20
10057;DHT22;5068;51.286;7.518;2023-05-07T03:53:46;12.50;66.20
10057;DHT22;5068;51.286;7.518;2023-05-07T03:55:18;12.50;66.20
10057;DHT22;5068;51.286;7.518;2023-05-07T03:56:57;12.50;66.20
10057;DHT22;5068;51.286;7.518;2023-05-07T03:58:30;12.50;66.30
10057;DHT22;5068;51.286;7.518;2023-05-07T04:00:11;12.50;66.30
10057;DHT22;5068;51.286;7.518;2023-05-07T04:01:54;12.50;66.40
10057;DHT22;5068;51.286;7.518;2023-05-07T04:03:29;12.50;66.30
10057;DHT22;5068;51.286;7.518;2023-05-07T04:05:04;12.40;66.30
10057;DHT22;5068;51.286;7.518;2023-05-07T04:06:38;12.40;66.30
10057;DHT22;5068;51.286;7.518;2023-05-07T04:08:11;12.40;66.30
10057;DHT22;5068;51.286;7.518;2023-05-07T04:09:50;12.40;66.40
10057;DHT22;5068;51.286;7.518;2023-05-07T04:11:23;12.40;66.40
10057;DHT22;5068;51.286;7.518;2023-05-07T04:12:56;12.40;66.40
10057;DHT22;5068;51.286;7.518;2023-05-07T04:14:30;12.40;66.40
10057;DHT22;5068;51.286;7.518;2023-05-07T04:16:06;12.40;66.40
10057;DHT22;5068;51.286;7.518;2023-05-07T04:17:42;12.40;66.50
10057;DHT22;5068;51.286;7.518;2023-05-07T04:19:17;12.40;66.40
10057;DHT22;5068;51.286;7.518;2023-05-07T04:20:53;12.40;66.40
10057;DHT22;5068;51.286;7.518;2023-05-07T04:22:27;12.40;66.40
10057;DHT22;5068;51.286;7.518;2023-05-07T04:24:00;12.30;66.30
10057;DHT22;5068;51.286;7.518;2023-05-07T04:25:33;12.30;66.40
10057;DHT22;5068;51.286;7.518;2023-05-07T04:27:14;12.30;66.50
10057;DHT22;5068;51.286;7.518;2023-05-07T04:28:47;12.30;66.50
10057;DHT22;5068;51.286;7.518;2023-05-07T04:30:20;12.30;66.50
10057;DHT22;5068;51.286;7.518;2023-05-07T04:31:55;12.30;66.60
10057;DHT22;5068;51.286;7.518;2023-05-07T04:33:28;12.30;66.80
10057;DHT22;5068;51.286;7.518;2023-05-07T04:35:02;12.30;66.80
10057;DHT22;5068;51.286;7.518;2023-05-07T04:36:37;12.20;66.80
10057;DHT22;5068;51.286;7.518;2023-05-07T04:38:15;12.20;66.90
10057;DHT22;5068;51.286;7.518;2023-05-07T04:39:51;12.30;67.00
10057;DHT22;5068;51.286;7.518;2023-05-07T04:41:26;12.20;67.00
10057;DHT22;5068;51.286;7.518;2023-05-07T04:42:59;12.30;67.40
10057;DHT22;5068;51.286;7.518;2023-05-07T04:44:35;12.30;67.70
10057;DHT22;5068;51.286;7.518;2023-05-07T04:46:08;12.30;67.00
10057;DHT22;5068;51.286;7.518;2023-05-07T04:47:43;12.20;66.90
10057;DHT22;5068;51.286;7.518;2023-05-07T04:49:17;12.20;67.00
10057;DHT22;5068;51.286;7.518;2023-05-07T04:50:50;12.20;67.00
10057;DHT22;5068;51.286;7.518;2023-05-07T04:52:24;12.20;67.10
10057;DHT22;5068;51.286;7.518;2023-05-07T04:53:58;12.20;67.20
10057;DHT22;5068;51.286;7.518;2023-05-07T04:55:33;12.20;67.20
10057;DHT22;5068;51.286;7.518;2023-05-07T04:57:07;12.30;67.50
10057;DHT22;5068;51.286;7.518;2023-05-07T04:58:40;12.20;67.40
10057;DHT22;5068;51.286;7.518;2023-05-07T05:00:14;12.20;67.50
10057;DHT22;5068;51.286;7.518;2023-05-07T05:01:49;12.20;68.50
10057;DHT22;5068;51.286;7.518;2023-05-07T05:03:23;12.20;67.70
10057;DHT22;5068;51.286;7.518;2023-05-07T05:04:57;12.20;67.80
10057;DHT22;5068;51.286;7.518;2023-05-07T05:06:30;12.30;68.30
10057;DHT22;5068;51.286;7.518;2023-05-07T05:08:06;12.30;67.70
10057;DHT22;5068;51.286;7.518;2023-05-07T05:09:42;12.30;67.80
10057;DHT22;5068;51.286;7.518;2023-05-07T05:11:15;12.30;67.90
10057;DHT22;5068;51.286;7.518;2023-05-07T05:12:48;12.20;67.90
10057;DHT22;5068;51.286;7.518;2023-05-07T05:14:22;12.20;67.90
10057;DHT22;5068;51.286;7.518;2023-05-07T05:15:56;12.30;68.10
10057;DHT22;5068;51.286;7.518;2023-05-07T05:17:30;12.30;68.20
10057;DHT22;5068;51.286;7.518;2023-05-07T05:19:06;12.30;68.40
10057;DHT22;5068;51.286;7.518;2023-05-07T05:20:42;12.30;68.30
10057;DHT22;5068;51.286;7.518;2023-05-07T05:22:16;12.30;68.30
10057;DHT22;5068;51.286;7.518;2023-05-07T05:23:48;12.30;68.30
10057;DHT22;5068;51.286;7.518;2023-05-07T05:25:25;12.30;68.30
10057;DHT22;5068;51.286;7.518;2023-05-07T05:26:57;12.40;68.50
10057;DHT22;5068;51.286;7.518;2023-05-07T05:28:33;12.30;68.50
10057;DHT22;5068;51.286;7.518;2023-05-07T05:30:09;12.40;68.60
10057;DHT22;5068;51.286;7.518;2023-05-07T05:31:43;12.40;68.70
10057;DHT22;5068;51.286;7.518;2023-05-07T05:33:16;12.40;68.70
10057;DHT22;5068;51.286;7.518;2023-05-07T05:34:51;12.40;68.70
10057;DHT22;5068;51.286;7.518;2023-05-07T05:36:24;12.50;68.90
10057;DHT22;5068;51.286;7.518;2023-05-07T05:38:00;12.50;68.90
10057;DHT22;5068;51.286;7.518;2023-05-07T05:39:45;12.50;68.90
10057;DHT22;5068;51.286;7.518;2023-05-07T05:41:18;12.50;69.10
10057;DHT22;5068;51.286;7.518;2023-05-07T05:42:52;12.60;69.00
10057;DHT22;5068;51.286;7.518;2023-05-07T05:44:26;12.60;69.10
10057;DHT22;5068;51.286;7.518;2023-05-07T05:45:59;12.60;69.10
10057;DHT22;5068;51.286;7.518;2023-05-07T05:47:32;12.60;69.10
10057;DHT22;5068;51.286;7.518;2023-05-07T05:49:05;12.60;69.20
10057;DHT22;5068;51.286;7.518;2023-05-07T05:50:41;12.60;69.30
10057;DHT22;5068;51.286;7.518;2023-05-07T05:52:15;12.60;69.60
10057;DHT22;5068;51.286;7.518;2023-05-07T05:53:48;12.70;69.70
10057;DHT22;5068;51.286;7.518;2023-05-07T05:55:22;12.70;69.70
10057;DHT22;5068;51.286;7.518;2023-05-07T05:56:54;12.70;69.80
10057;DHT22;5068;51.286;7.518;2023-05-07T05:58:28;12.70;70.20
10057;DHT22;5068;51.286;7.518;2023-05-07T06:00:06;12.80;70.00
10057;DHT22;5068;51.286;7.518;2023-05-07T06:01:49;12.80;70.20
10057;DHT22;5068;51.286;7.518;2023-05-07T06:03:22;12.80;70.10
10057;DHT22;5068;51.286;7.518;2023-05-07T06:04:56;12.80;70.20
10057;DHT22;5068;51.286;7.518;2023-05-07T06:06:30;12.90;70.30
10057;DHT22;5068;51.286;7.518;2023-05-07T06:08:05;12.90;70.30
10057;DHT22;5068;51.286;7.518;2023-05-07T06:09:39;12.90;70.40
10057;DHT22;5068;51.286;7.518;2023-05-07T06:11:13;13.00;70.40
10057;DHT22;5068;51.286;7.518;2023-05-07T06:12:48;13.10;70.40
10057;DHT22;5068;51.286;7.518;2023-05-07T06:14:22;13.00;70.40
10057;DHT22;5068;51.286;7.518;2023-05-07T06:15:55;13.10;70.50
10057;DHT22;5068;51.286;7.518;2023-05-07T06:17:29;13.10;70.20
10057;DHT22;5068;51.286;7.518;2023-05-07T06:19:02;13.20;70.30
10057;DHT22;5068;51.286;7.518;2023-05-07T06:20:34;13.20;70.30
10057;DHT22;5068;51.286;7.518;2023-05-07T06:22:11;13.20;70.20
10057;DHT22;5068;51.286;7.518;2023-05-07T06:23:44;13.30;70.30
10057;DHT22;5068;51.286;7.518;2023-05-07T06:25:18;13.30;70.20
10057;DHT22;5068;51.286;7.518;2023-05-07T06:26:52;13.40;70.20
10057;DHT22;5068;51.286;7.518;2023-05-07T06:28:25;13.40;70.10
10057;DHT22;5068;51.286;7.518;2023-05-07T06:29:59;13.50;70.90
10057;DHT22;5068;51.286;7.518;2023-05-07T06:31:33;13.50;70.00
10057;DHT22;5068;51.286;7.518;2023-05-07T06:33:10;13.50;69.80
10057;DHT22;5068;51.286;7.518;2023-05-07T06:34:43;13.60;69.70
10057;DHT22;5068;51.286;7.518;2023-05-07T06:36:17;13.60;69.70
10057;DHT22;5068;51.286;7.518;2023-05-07T06:37:52;13.70;69.80
10057;DHT22;5068;51.286;7.518;2023-05-07T06:39:31;13.70;69.80
10057;DHT22;5068;51.286;7.518;2023-05-07T06:41:05;13.70;69.90
10057;DHT22;5068;51.286;7.518;2023-05-07T06:42:39;13.80;70.10
10057;DHT22;5068;51.286;7.518;2023-05-07T06:44:28;13.90;70.10
10057;DHT22;5068;51.286;7.518;2023-05-07T06:46:22;13.90;70.10
10057;DHT22;5068;51.286;7.518;2023-05-07T06:47:56;14.00;70.30
10057;DHT22;5068;51.286;7.518;2023-05-07T06:49:29;14.00;70.50
10057;DHT22;5068;51.286;7.518;2023-05-07T06:51:03;14.10;70.50
10057;DHT22;5068;51.286;7.518;2023-05-07T06:52:37;14.10;70.40
10057;DHT22;5068;51.286;7.518;2023-05-07T06:54:12;14.20;70.40
10057;DHT22;5068;51.286;7.518;2023-05-07T06:55:47;14.20;70.30
10057;DHT22;5068;51.286;7.518;2023-05-07T06:57:24;14.20;70.20
10057;DHT22;5068;51.286;7.518;2023-05-07T06:58:57;14.30;69.90
10057;DHT22;5068;51.286;7.518;2023-05-07T07:00:30;14.40;69.70
10057;DHT22;5068;51.286;7.518;2023-05-07T07:02:03;14.40;69.40
10057;DHT22;5068;51.286;7.518;2023-05-07T07:03:37;14.40;69.00
10057;DHT22;5068;51.286;7.518;2023-05-07T07:05:10;14.50;68.80
10057;DHT22;5068;51.286;7.518;2023-05-07T07:06:43;14.50;68.50
10057;DHT22;5068;51.286;7.518;2023-05-07T07:08:18;14.60;68.80
10057;DHT22;5068;51.286;7.518;2023-05-07T07:09:54;14.60;69.00
10057;DHT22;5068;51.286;7.518;2023-05-07T07:11:28;14.70;69.10
10057;DHT22;5068;51.286;7.518;2023-05-07T07:13:01;14.80;68.70
10057;DHT22;5068;51.286;7.518;2023-05-07T07:14:34;14.80;67.90
10057;DHT22;5068;51.286;7.518;2023-05-07T07:16:08;14.80;67.90
10057;DHT22;5068;51.286;7.518;2023-05-07T07:17:41;14.90;68.00
10057;DHT22;5068;51.286;7.518;2023-05-07T07:19:14;15.00;68.10
10057;DHT22;5068;51.286;7.518;2023-05-07T07:20:48;15.00;68.10
10057;DHT22;5068;51.286;7.518;2023-05-07T07:22:21;15.10;68.20
10057;DHT22;5068;51.286;7.518;2023-05-07T07:23:55;15.10;67.90
10057;DHT22;5068;51.286;7.518;2023-05-07T07:25:29;15.20;67.30
10057;DHT22;5068;51.286;7.518;2023-05-07T07:27:02;15.20;67.10
10057;DHT22;5068;51.286;7.518;2023-05-07T07:28:42;15.30;67.10
10057;DHT22;5068;51.286;7.518;2023-05-07T07:30:18;15.30;66.90
10057;DHT22;5068;51.286;7.518;2023-05-07T07:31:53;15.40;66.80
10057;DHT22;5068;51.286;7.518;2023-05-07T07:33:27;15.50;66.90
10057;DHT22;5068;51.286;7.518;2023-05-07T07:35:01;15.50;66.50
10057;DHT22;5068;51.286;7.518;2023-05-07T07:36:34;15.60;66.20
10057;DHT22;5068;51.286;7.518;2023-05-07T07:38:19;15.60;66.00
10057;DHT22;5068;51.286;7.518;2023-05-07T07:39:53;15.70;65.70
10057;DHT22;5068;51.286;7.518;2023-05-07T07:41:28;15.80;65.00
10057;DHT22;5068;51.286;7.518;2023-05-07T07:43:01;15.80;64.60
10057;DHT22;5068;51.286;7.518;2023-05-07T07:44:35;15.80;64.60
10057;DHT22;5068;51.286;7.518;2023-05-07T07:46:12;15.90;64.50
10057;DHT22;5068;51.286;7.518;2023-05-07T07:47:47;16.00;64.30
10057;DHT22;5068;51.286;7.518;2023-05-07T07:49:21;16.00;64.30
10057;DHT22;5068;51.286;7.518;2023-05-07T07:50:54;16.10;64.30
10057;DHT22;5068;51.286;7.518;2023-05-07T07:52:27;16.10;63.70
10057;DHT22;5068;51.286;7.518;2023-05-07T07:54:01;16.20;63.10
10057;DHT22;5068;51.286;7.518;2023-05-07T07:55:38;16.30;63.20
10057;DHT22;5068;51.286;7.518;2023-05-07T07:57:15;16.30;63.20
10057;DHT22;5068;51.286;7.518;2023-05-07T07:58:48;16.40;63.30
10057;DHT22;5068;51.286;7.518;2023-05-07T08:00:22;16.50;62.90
10057;DHT22;5068;51.286;7.518;2023-05-07T08:01:59;16.60;62.40
10057;DHT22;5068;51.286;7.518;2023-05-07T08:03:33;16.60;62.40
10057;DHT22;5068;51.286;7.518;2023-05-07T08:05:08;16.70;62.00
10057;DHT22;5068;51.286;7.518;2023-05-07T08:06:41;16.80;62.40
10057;DHT22;5068;51.286;7.518;2023-05-07T08:08:15;16.90;62.80
10057;DHT22;5068;51.286;7.518;2023-05-07T08:09:48;16.90;62.00
10057;DHT22;5068;51.286;7.518;2023-05-07T08:11:25;17.00;61.50
10057;DHT22;5068;51.286;7.518;2023-05-07T08:13:01;17.10;61.30
10057;DHT22;5068;51.286;7.518;2023-05-07T08:14:35;17.20;61.50
10057;DHT22;5068;51.286;7.518;2023-05-07T08:16:11;17.20;60.60
10057;DHT22;5068;51.286;7.518;2023-05-07T08:17:44;17.30;60.60
10057;DHT22;5068;51.286;7.518;2023-05-07T08:19:18;17.40;60.60
10057;DHT22;5068;51.286;7.518;2023-05-07T08:20:51;17.50;60.50
10057;DHT22;5068;51.286;7.518;2023-05-07T08:22:30;17.50;60.30
10057;DHT22;5068;51.286;7.518;2023-05-07T08:24:04;17.60;60.50
10057;DHT22;5068;51.286;7.518;2023-05-07T08:25:37;17.70;60.20
10057;DHT22;5068;51.286;7.518;2023-05-07T08:27:11;17.80;59.80
10057;DHT22;5068;51.286;7.518;2023-05-07T08:28:47;17.90;59.60
10057;DHT22;5068;51.286;7.518;2023-05-07T08:30:21;18.00;58.90
10057;DHT22;5068;51.286;7.518;2023-05-07T08:31:59;18.00;58.10
10057;DHT22;5068;51.286;7.518;2023-05-07T08:33:32;18.10;57.10
10057;DHT22;5068;51.286;7.518;2023-05-07T08:35:06;18.20;56.50
10057;DHT22;5068;51.286;7.518;2023-05-07T08:36:40;18.30;55.90
10057;DHT22;5068;51.286;7.518;2023-05-07T08:38:15;18.30;55.50
10057;DHT22;5068;51.286;7.518;2023-05-07T08:39:49;18.30;55.00
10057;DHT22;5068;51.286;7.518;2023-05-07T08:41:26;18.40;54.50
10057;DHT22;5068;51.286;7.518;2023-05-07T08:43:01;18.40;54.80
10057;DHT22;5068;51.286;7.518;2023-05-07T08:44:38;18.50;54.60
10057;DHT22;5068;51.286;7.518;2023-05-07T08:46:17;18.50;53.90
10057;DHT22;5068;51.286;7.518;2023-05-07T08:47:58;18.60;54.10
10057;DHT22;5068;51.286;7.518;2023-05-07T08:49:36;18.70;54.50
10057;DHT22;5068;51.286;7.518;2023-05-07T08:51:12;18.80;54.70
10057;DHT22;5068;51.286;7.518;2023-05-07T08:52:46;18.80;54.30
10057;DHT22;5068;51.286;7.518;2023-05-07T08:54:21;18.90;54.30
10057;DHT22;5068;51.286;7.518;2023-05-07T08:55:55;18.90;54.00
10057;DHT22;5068;51.286;7.518;2023-05-07T08:57:29;19.00;53.70
10057;DHT22;5068;51.286;7.518;2023-05-07T08:59:02;19.00;53.80
10057;DHT22;5068;51.286;7.518;2023-05-07T09:00:39;19.10;53.60
10057;DHT22;5068;51.286;7.518;2023-05-07T09:02:13;19.10;53.10
10057;DHT22;5068;51.286;7.518;2023-05-07T09:03:47;19.10;53.60
10057;DHT22;5068;51.286;7.518;2023-05-07T09:05:20;19.20;53.80
10057;DHT22;5068;51.286;7.518;2023-05-07T09:06:54;19.20;53.70
10057;DHT22;5068;51.286;7.518;2023-05-07T09:08:28;19.20;53.70
10057;DHT22;5068;51.286;7.518;2023-05-07T09:10:05;19.30;53.40
10057;DHT22;5068;51.286;7.518;2023-05-07T09:11:42;19.30;53.30
10057;DHT22;5068;51.286;7.518;2023-05-07T09:13:16;19.40;53.50
10057;DHT22;5068;51.286;7.518;2023-05-07T09:14:51;19.50;53.70
10057;DHT22;5068;51.286;7.518;2023-05-07T09:16:26;19.50;53.60
10057;DHT22;5068;51.286;7.518;2023-05-07T09:18:03;19.60;53.10
10057;DHT22;5068;51.286;7.518;2023-05-07T09:19:38;19.60;53.00
10057;DHT22;5068;51.286;7.518;2023-05-07T09:21:19;19.70;52.50
10057;DHT22;5068;51.286;7.518;2023-05-07T09:22:56;19.70;52.40
10057;DHT22;5068;51.286;7.518;2023-05-07T09:24:30;19.80;52.90
10057;DHT22;5068;51.286;7.518;2023-05-07T09:26:08;19.80;52.80
10057;DHT22;5068;51.286;7.518;2023-05-07T09:27:45;19.80;52.50
10057;DHT22;5068;51.286;7.518;2023-05-07T09:29:18;19.90;52.70
10057;DHT22;5068;51.286;7.518;2023-05-07T09:30:51;19.90;53.00
10057;DHT22;5068;51.286;7.518;2023-05-07T09:32:26;19.90;53.00
10057;DHT22;5068;51.286;7.518;2023-05-07T09:34:00;20.00;52.80
10057;DHT22;5068;51.286;7.518;2023-05-07T09:35:35;20.00;52.80
10057;DHT22;5068;51.286;7.518;2023-05-07T09:37:15;20.10;52.60
10057;DHT22;5068;51.286;7.518;2023-05-07T09:38:49;20.10;52.30
10057;DHT22;5068;51.286;7.518;2023-05-07T09:40:24;20.10;52.40
10057;DHT22;5068;51.286;7.518;2023-05-07T09:42:00;20.10;52.30
10057;DHT22;5068;51.286;7.518;2023-05-07T09:43:39;20.10;52.20
10057;DHT22;5068;51.286;7.518;2023-05-07T09:45:15;20.10;52.00
10057;DHT22;5068;51.286;7.518;2023-05-07T09:46:54;20.10;51.80
10057;DHT22;5068;51.286;7.518;2023-05-07T09:48:39;20.10;51.50
10057;DHT22;5068;51.286;7.518;2023-05-07T09:50:16;20.10;51.60
10057;DHT22;5068;51.286;7.518;2023-05-07T09:51:51;20.10;51.40
10057;DHT22;5068;51.286;7.518;2023-05-07T09:53:29;20.20;51.50
10057;DHT22;5068;51.286;7.518;2023-05-07T09:55:06;20.10;51.30
10057;DHT22;5068;51.286;7.518;2023-05-07T09:56:42;20.10;51.20
10057;DHT22;5068;51.286;7.518;2023-05-07T09:58:18;20.10;50.70
10057;DHT22;5068;51.286;7.518;2023-05-07T09:59:52;20.20;50.80
10057;DHT22;5068;51.286;7.518;2023-05-07T10:01:29;20.10;51.10
10057;DHT22;5068;51.286;7.518;2023-05-07T10:03:04;20.20;51.10
10057;DHT22;5068;51.286;7.518;2023-05-07T10:04:50;20.20;50.80
10057;DHT22;5068;51.286;7.518;2023-05-07T10:06:30;20.10;50.70